sensor_id;sensor_type;location;lat;lon;timestamp;P1;durP1;ratioP1;P2;durP2;ratioP2
52432;SDS011;38352;53.244;6.594;2022-08-21T00:02:13;6.38;;;3.22;;
52432;SDS011;38352;53.244;6.594;2022-08-21T00:04:40;7.85;;;3.63;;
52432;SDS011;38352;53.244;6.594;2022-08-21T00:07:06;9.45;;;3.75;;
52432;SDS011;38352;53.244;6.594;2022-08-21T00:09:32;6.55;;;3.15;;
52432;SDS011;38352;53.244;6.594;2022-08-21T00:11:58;8.05;;;3.90;;
52432;SDS011;38352;53.244;6.594;2022-08-21T00:14:24;7.63;;;3.45;;
52432;SDS011;38352;53.244;6.594;2022-08-21T00:16:50;6.28;;;3.00;;
52432;SDS011;38352;53.244;6.594;2022-08-21T00:19:16;8.95;;;3.78;;
52432;SDS011;38352;53.244;6.594;2022-08-21T00:21:42;11.27;;;3.53;;
52432;SDS011;38352;53.244;6.594;2022-08-21T00:24:08;7.75;;;3.45;;
52432;SDS011;38352;53.244;6.594;2022-08-21T00:26:35;6.97;;;3.92;;
52432;SDS011;38352;53.244;6.594;2022-08-21T00:29:01;5.85;;;3.03;;
52432;SDS011;38352;53.244;6.594;2022-08-21T00:31:27;6.95;;;3.58;;
52432;SDS011;38352;53.244;6.594;2022-08-21T00:33:53;6.60;;;3.33;;
52432;SDS011;38352;53.244;6.594;2022-08-21T00:36:19;7.35;;;3.33;;
52432;SDS011;38352;53.244;6.594;2022-08-21T00:38:45;7.53;;;3.28;;
52432;SDS011;38352;53.244;6.594;2022-08-21T00:41:11;5.80;;;3.03;;
52432;SDS011;38352;53.244;6.594;2022-08-21T00:43:37;7.38;;;4.18;;
52432;SDS011;38352;53.244;6.594;2022-08-21T00:46:04;9.20;;;3.65;;
52432;SDS011;38352;53.244;6.594;2022-08-21T00:48:31;8.43;;;3.75;;
52432;SDS011;38352;53.244;6.594;2022-08-21T00:51:05;7.30;;;4.03;;
52432;SDS011;38352;53.244;6.594;2022-08-21T00:53:32;6.38;;;3.25;;
52432;SDS011;38352;53.244;6.594;2022-08-21T00:55:58;8.57;;;3.97;;
52432;SDS011;38352;53.244;6.594;2022-08-21T00:58:27;8.93;;;3.92;;
52432;SDS011;38352;53.244;6.594;2022-08-21T01:00:53;8.38;;;3.88;;
52432;SDS011;38352;53.244;6.594;2022-08-21T01:03:21;8.30;;;3.90;;
52432;SDS011;38352;53.244;6.594;2022-08-21T01:05:48;8.68;;;3.70;;
52432;SDS011;38352;53.244;6.594;2022-08-21T01:08:15;8.05;;;4.03;;
52432;SDS011;38352;53.244;6.594;2022-08-21T01:10:41;6.55;;;3.30;;
52432;SDS011;38352;53.244;6.594;2022-08-21T01:13:08;5.93;;;3.30;;
52432;SDS011;38352;53.244;6.594;2022-08-21T01:15:36;7.35;;;3.83;;
52432;SDS011;38352;53.244;6.594;2022-08-21T01:18:04;6.93;;;3.55;;
52432;SDS011;38352;53.244;6.594;2022-08-21T01:20:32;7.57;;;3.85;;
52432;SDS011;38352;53.244;6.594;2022-08-21T01:22:59;6.70;;;3.78;;
52432;SDS011;38352;53.244;6.594;2022-08-21T01:25:25;8.32;;;3.70;;
52432;SDS011;38352;53.244;6.594;2022-08-21T01:27:51;7.05;;;3.60;;
52432;SDS011;38352;53.244;6.594;2022-08-21T01:30:21;6.45;;;3.58;;
52432;SDS011;38352;53.244;6.594;2022-08-21T01:32:48;7.68;;;3.83;;
52432;SDS011;38352;53.244;6.594;2022-08-21T01:35:15;8.07;;;3.97;;
52432;SDS011;38352;53.244;6.594;2022-08-21T01:37:41;10.70;;;4.03;;
52432;SDS011;38352;53.244;6.594;2022-08-21T01:40:08;8.10;;;4.45;;
52432;SDS011;38352;53.244;6.594;2022-08-21T01:42:35;6.90;;;3.67;;
52432;SDS011;38352;53.244;6.594;2022-08-21T01:45:03;8.40;;;4.45;;
52432;SDS011;38352;53.244;6.594;2022-08-21T01:47:29;7.47;;;4.35;;
52432;SDS011;38352;53.244;6.594;2022-08-21T01:49:55;7.72;;;4.78;;
52432;SDS011;38352;53.244;6.594;2022-08-21T01:52:21;8.77;;;4.18;;
52432;SDS011;38352;53.244;6.594;2022-08-21T01:54:47;7.45;;;4.03;;
52432;SDS011;38352;53.244;6.594;2022-08-21T01:57:14;7.95;;;4.30;;
52432;SDS011;38352;53.244;6.594;2022-08-21T01:59:40;7.70;;;4.03;;
52432;SDS011;38352;53.244;6.594;2022-08-21T02:02:06;11.25;;;4.72;;
52432;SDS011;38352;53.244;6.594;2022-08-21T02:04:33;8.18;;;4.40;;
52432;SDS011;38352;53.244;6.594;2022-08-21T02:07:00;8.55;;;4.50;;
52432;SDS011;38352;53.244;6.594;2022-08-21T02:09:26;9.05;;;4.40;;
52432;SDS011;38352;53.244;6.594;2022-08-21T02:11:52;8.18;;;5.10;;
52432;SDS011;38352;53.244;6.594;2022-08-21T02:14:18;9.50;;;5.28;;
52432;SDS011;38352;53.244;6.594;2022-08-21T02:16:45;9.15;;;4.30;;
52432;SDS011;38352;53.244;6.594;2022-08-21T02:19:11;11.45;;;5.05;;
52432;SDS011;38352;53.244;6.594;2022-08-21T02:21:38;8.90;;;4.82;;
52432;SDS011;38352;53.244;6.594;2022-08-21T02:24:04;10.52;;;4.63;;
52432;SDS011;38352;53.244;6.594;2022-08-21T02:26:30;10.15;;;4.65;;
52432;SDS011;38352;53.244;6.594;2022-08-21T02:28:56;9.65;;;4.35;;
52432;SDS011;38352;53.244;6.594;2022-08-21T02:31:22;9.93;;;4.55;;
52432;SDS011;38352;53.244;6.594;2022-08-21T02:33:49;12.63;;;5.38;;
52432;SDS011;38352;53.244;6.594;2022-08-21T02:36:16;9.40;;;4.68;;
52432;SDS011;38352;53.244;6.594;2022-08-21T02:38:42;9.75;;;4.82;;
52432;SDS011;38352;53.244;6.594;2022-08-21T02:41:13;9.43;;;5.07;;
52432;SDS011;38352;53.244;6.594;2022-08-21T02:43:39;9.30;;;4.50;;
52432;SDS011;38352;53.244;6.594;2022-08-21T02:46:07;12.48;;;4.97;;
52432;SDS011;38352;53.244;6.594;2022-08-21T02:48:33;11.20;;;5.28;;
52432;SDS011;38352;53.244;6.594;2022-08-21T02:51:11;14.27;;;4.70;;
52432;SDS011;38352;53.244;6.594;2022-08-21T02:53:37;11.48;;;5.00;;
52432;SDS011;38352;53.244;6.594;2022-08-21T02:56:04;10.35;;;5.07;;
52432;SDS011;38352;53.244;6.594;2022-08-21T02:58:32;9.30;;;4.50;;
52432;SDS011;38352;53.244;6.594;2022-08-21T03:00:59;9.85;;;5.10;;
52432;SDS011;38352;53.244;6.594;2022-08-21T03:03:26;7.60;;;3.97;;
52432;SDS011;38352;53.244;6.594;2022-08-21T03:05:53;10.07;;;4.93;;
52432;SDS011;38352;53.244;6.594;2022-08-21T03:08:21;11.82;;;5.03;;
52432;SDS011;38352;53.244;6.594;2022-08-21T03:10:49;14.40;;;5.28;;
52432;SDS011;38352;53.244;6.594;2022-08-21T03:13:15;12.43;;;5.40;;
52432;SDS011;38352;53.244;6.594;2022-08-21T03:15:42;8.18;;;4.72;;
52432;SDS011;38352;53.244;6.594;2022-08-21T03:18:08;12.32;;;5.47;;
52432;SDS011;38352;53.244;6.594;2022-08-21T03:20:35;8.23;;;4.35;;
52432;SDS011;38352;53.244;6.594;2022-08-21T03:23:02;11.40;;;4.60;;
52432;SDS011;38352;53.244;6.594;2022-08-21T03:25:28;10.43;;;4.97;;
52432;SDS011;38352;53.244;6.594;2022-08-21T03:27:57;17.42;;;5.15;;
52432;SDS011;38352;53.244;6.594;2022-08-21T03:30:23;9.02;;;4.15;;
52432;SDS011;38352;53.244;6.594;2022-08-21T03:32:49;10.90;;;4.43;;
52432;SDS011;38352;53.244;6.594;2022-08-21T03:35:16;8.10;;;4.18;;
52432;SDS011;38352;53.244;6.594;2022-08-21T03:37:42;10.27;;;5.20;;
52432;SDS011;38352;53.244;6.594;2022-08-21T03:40:09;7.75;;;4.35;;
52432;SDS011;38352;53.244;6.594;2022-08-21T03:42:36;9.35;;;3.70;;
52432;SDS011;38352;53.244;6.594;2022-08-21T03:45:03;7.78;;;4.20;;
52432;SDS011;38352;53.244;6.594;2022-08-21T03:47:29;10.40;;;4.05;;
52432;SDS011;38352;53.244;6.594;2022-08-21T03:49:55;9.32;;;4.15;;
52432;SDS011;38352;53.244;6.594;2022-08-21T03:52:21;10.65;;;4.20;;
52432;SDS011;38352;53.244;6.594;2022-08-21T03:54:48;8.85;;;3.95;;
52432;SDS011;38352;53.244;6.594;2022-08-21T03:57:15;12.65;;;4.63;;
52432;SDS011;38352;53.244;6.594;2022-08-21T03:59:42;10.65;;;5.13;;
52432;SDS011;38352;53.244;6.594;2022-08-21T04:02:08;12.60;;;4.20;;
52432;SDS011;38352;53.244;6.594;2022-08-21T04:04:35;11.93;;;4.30;;
52432;SDS011;38352;53.244;6.594;2022-08-21T04:07:02;8.40;;;4.20;;
52432;SDS011;38352;53.244;6.594;2022-08-21T04:09:28;11.00;;;4.40;;
52432;SDS011;38352;53.244;6.594;2022-08-21T04:11:55;10.05;;;3.80;;
52432;SDS011;38352;53.244;6.594;2022-08-21T04:14:21;10.32;;;4.68;;
52432;SDS011;38352;53.244;6.594;2022-08-21T04:16:47;10.80;;;4.43;;
52432;SDS011;38352;53.244;6.594;2022-08-21T04:19:14;9.13;;;4.03;;
52432;SDS011;38352;53.244;6.594;2022-08-21T04:21:40;8.88;;;4.10;;
52432;SDS011;38352;53.244;6.594;2022-08-21T04:24:07;7.05;;;3.90;;
52432;SDS011;38352;53.244;6.594;2022-08-21T04:26:34;10.68;;;4.20;;
52432;SDS011;38352;53.244;6.594;2022-08-21T04:29:00;10.75;;;5.03;;
52432;SDS011;38352;53.244;6.594;2022-08-21T04:31:26;9.23;;;4.40;;
52432;SDS011;38352;53.244;6.594;2022-08-21T04:33:53;9.52;;;4.47;;
52432;SDS011;38352;53.244;6.594;2022-08-21T04:36:19;9.35;;;4.63;;
52432;SDS011;38352;53.244;6.594;2022-08-21T04:38:46;10.65;;;4.60;;
52432;SDS011;38352;53.244;6.594;2022-08-21T04:41:13;9.90;;;4.35;;
52432;SDS011;38352;53.244;6.594;2022-08-21T04:43:39;7.82;;;4.55;;
52432;SDS011;38352;53.244;6.594;2022-08-21T04:46:05;13.05;;;4.43;;
52432;SDS011;38352;53.244;6.594;2022-08-21T04:48:32;9.02;;;4.03;;
52432;SDS011;38352;53.244;6.594;2022-08-21T04:51:17;8.55;;;3.85;;
52432;SDS011;38352;53.244;6.594;2022-08-21T04:56:15;9.10;;;4.70;;
52432;SDS011;38352;53.244;6.594;2022-08-21T05:01:13;8.80;;;4.53;;
52432;SDS011;38352;53.244;6.594;2022-08-21T05:03:41;12.50;;;4.47;;
52432;SDS011;38352;53.244;6.594;2022-08-21T05:06:08;11.68;;;4.40;;
52432;SDS011;38352;53.244;6.594;2022-08-21T05:08:36;11.25;;;4.80;;
52432;SDS011;38352;53.244;6.594;2022-08-21T05:11:02;9.20;;;4.28;;
52432;SDS011;38352;53.244;6.594;2022-08-21T05:13:29;10.07;;;4.28;;
52432;SDS011;38352;53.244;6.594;2022-08-21T05:15:55;11.98;;;4.65;;
52432;SDS011;38352;53.244;6.594;2022-08-21T05:18:21;11.30;;;4.90;;
52432;SDS011;38352;53.244;6.594;2022-08-21T05:20:47;8.65;;;4.38;;
52432;SDS011;38352;53.244;6.594;2022-08-21T05:23:14;11.70;;;4.95;;
52432;SDS011;38352;53.244;6.594;2022-08-21T05:25:40;10.05;;;4.18;;
52432;SDS011;38352;53.244;6.594;2022-08-21T05:28:07;8.90;;;4.63;;
52432;SDS011;38352;53.244;6.594;2022-08-21T05:30:33;8.38;;;3.78;;
52432;SDS011;38352;53.244;6.594;2022-08-21T05:33:01;11.75;;;4.18;;
52432;SDS011;38352;53.244;6.594;2022-08-21T05:35:28;9.60;;;4.97;;
52432;SDS011;38352;53.244;6.594;2022-08-21T05:37:54;8.40;;;4.60;;
52432;SDS011;38352;53.244;6.594;2022-08-21T05:40:20;8.05;;;4.45;;
52432;SDS011;38352;53.244;6.594;2022-08-21T05:42:47;11.85;;;4.22;;
52432;SDS011;38352;53.244;6.594;2022-08-21T05:45:13;12.77;;;4.32;;
52432;SDS011;38352;53.244;6.594;2022-08-21T05:47:39;12.10;;;4.63;;
52432;SDS011;38352;53.244;6.594;2022-08-21T05:50:05;11.68;;;5.07;;
52432;SDS011;38352;53.244;6.594;2022-08-21T05:52:31;10.57;;;5.20;;
52432;SDS011;38352;53.244;6.594;2022-08-21T05:54:58;9.15;;;5.10;;
52432;SDS011;38352;53.244;6.594;2022-08-21T05:57:24;11.40;;;5.13;;
52432;SDS011;38352;53.244;6.594;2022-08-21T05:59:50;12.88;;;5.35;;
52432;SDS011;38352;53.244;6.594;2022-08-21T06:02:17;9.00;;;4.00;;
52432;SDS011;38352;53.244;6.594;2022-08-21T06:04:43;10.73;;;4.28;;
52432;SDS011;38352;53.244;6.594;2022-08-21T06:07:09;11.48;;;4.60;;
52432;SDS011;38352;53.244;6.594;2022-08-21T06:09:36;11.50;;;4.47;;
52432;SDS011;38352;53.244;6.594;2022-08-21T06:12:10;9.55;;;4.28;;
52432;SDS011;38352;53.244;6.594;2022-08-21T06:17:04;12.85;;;4.72;;
52432;SDS011;38352;53.244;6.594;2022-08-21T06:19:30;10.30;;;4.10;;
52432;SDS011;38352;53.244;6.594;2022-08-21T06:21:57;12.45;;;4.75;;
52432;SDS011;38352;53.244;6.594;2022-08-21T06:24:24;9.23;;;4.00;;
52432;SDS011;38352;53.244;6.594;2022-08-21T06:26:50;12.68;;;4.55;;
52432;SDS011;38352;53.244;6.594;2022-08-21T06:29:16;13.10;;;4.63;;
52432;SDS011;38352;53.244;6.594;2022-08-21T06:31:42;12.10;;;4.85;;
52432;SDS011;38352;53.244;6.594;2022-08-21T06:34:09;10.80;;;4.20;;
52432;SDS011;38352;53.244;6.594;2022-08-21T06:36:36;8.43;;;4.50;;
52432;SDS011;38352;53.244;6.594;2022-08-21T06:39:02;10.05;;;4.85;;
52432;SDS011;38352;53.244;6.594;2022-08-21T06:41:28;15.18;;;5.03;;
52432;SDS011;38352;53.244;6.594;2022-08-21T06:43:55;11.75;;;4.78;;
52432;SDS011;38352;53.244;6.594;2022-08-21T06:46:22;15.57;;;4.45;;
52432;SDS011;38352;53.244;6.594;2022-08-21T06:48:48;11.60;;;4.47;;
52432;SDS011;38352;53.244;6.594;2022-08-21T06:51:14;9.30;;;3.97;;
52432;SDS011;38352;53.244;6.594;2022-08-21T06:53:41;10.77;;;4.40;;
52432;SDS011;38352;53.244;6.594;2022-08-21T06:56:07;9.38;;;3.78;;
52432;SDS011;38352;53.244;6.594;2022-08-21T06:58:33;11.15;;;4.22;;
52432;SDS011;38352;53.244;6.594;2022-08-21T07:00:59;6.50;;;3.55;;
52432;SDS011;38352;53.244;6.594;2022-08-21T07:03:27;10.02;;;3.90;;
52432;SDS011;38352;53.244;6.594;2022-08-21T07:05:54;8.85;;;3.90;;
52432;SDS011;38352;53.244;6.594;2022-08-21T07:08:23;9.07;;;3.67;;
52432;SDS011;38352;53.244;6.594;2022-08-21T07:10:49;12.13;;;3.83;;
52432;SDS011;38352;53.244;6.594;2022-08-21T07:13:16;9.32;;;3.40;;
52432;SDS011;38352;53.244;6.594;2022-08-21T07:15:43;6.57;;;3.22;;
52432;SDS011;38352;53.244;6.594;2022-08-21T07:18:09;7.95;;;3.30;;
52432;SDS011;38352;53.244;6.594;2022-08-21T07:20:36;7.60;;;3.45;;
52432;SDS011;38352;53.244;6.594;2022-08-21T07:23:04;9.35;;;3.28;;
52432;SDS011;38352;53.244;6.594;2022-08-21T07:25:30;9.57;;;3.22;;
52432;SDS011;38352;53.244;6.594;2022-08-21T07:27:57;6.78;;;2.72;;
52432;SDS011;38352;53.244;6.594;2022-08-21T07:30:23;9.60;;;3.40;;
52432;SDS011;38352;53.244;6.594;2022-08-21T07:32:49;8.95;;;2.80;;
52432;SDS011;38352;53.244;6.594;2022-08-21T07:35:17;7.75;;;3.00;;
52432;SDS011;38352;53.244;6.594;2022-08-21T07:37:43;8.82;;;3.15;;
52432;SDS011;38352;53.244;6.594;2022-08-21T07:40:10;11.18;;;3.42;;
52432;SDS011;38352;53.244;6.594;2022-08-21T07:42:40;10.20;;;3.10;;
52432;SDS011;38352;53.244;6.594;2022-08-21T07:45:06;8.38;;;2.80;;
52432;SDS011;38352;53.244;6.594;2022-08-21T07:47:33;6.65;;;2.78;;
52432;SDS011;38352;53.244;6.594;2022-08-21T07:49:59;10.68;;;3.08;;
52432;SDS011;38352;53.244;6.594;2022-08-21T07:52:25;8.60;;;3.30;;
52432;SDS011;38352;53.244;6.594;2022-08-21T07:54:51;7.00;;;2.50;;
52432;SDS011;38352;53.244;6.594;2022-08-21T07:57:17;8.48;;;2.78;;
52432;SDS011;38352;53.244;6.594;2022-08-21T07:59:43;7.93;;;2.38;;
52432;SDS011;38352;53.244;6.594;2022-08-21T08:02:09;5.35;;;2.47;;
52432;SDS011;38352;53.244;6.594;2022-08-21T08:04:35;7.90;;;2.60;;
52432;SDS011;38352;53.244;6.594;2022-08-21T08:07:01;7.00;;;2.22;;
52432;SDS011;38352;53.244;6.594;2022-08-21T08:09:27;6.95;;;2.58;;
52432;SDS011;38352;53.244;6.594;2022-08-21T08:11:54;8.07;;;2.78;;
52432;SDS011;38352;53.244;6.594;2022-08-21T08:14:20;8.55;;;2.67;;
52432;SDS011;38352;53.244;6.594;2022-08-21T08:16:46;10.18;;;3.25;;
52432;SDS011;38352;53.244;6.594;2022-08-21T08:19:12;7.00;;;3.00;;
52432;SDS011;38352;53.244;6.594;2022-08-21T08:21:38;10.10;;;2.85;;
52432;SDS011;38352;53.244;6.594;2022-08-21T08:24:04;11.23;;;3.00;;
52432;SDS011;38352;53.244;6.594;2022-08-21T08:26:30;7.95;;;2.33;;
52432;SDS011;38352;53.244;6.594;2022-08-21T08:28:56;10.70;;;2.70;;
52432;SDS011;38352;53.244;6.594;2022-08-21T08:31:22;9.15;;;2.72;;
52432;SDS011;38352;53.244;6.594;2022-08-21T08:33:48;8.13;;;2.70;;
52432;SDS011;38352;53.244;6.594;2022-08-21T08:36:16;8.25;;;2.50;;
52432;SDS011;38352;53.244;6.594;2022-08-21T08:38:42;10.15;;;2.85;;
52432;SDS011;38352;53.244;6.594;2022-08-21T08:43:38;7.07;;;2.97;;
52432;SDS011;38352;53.244;6.594;2022-08-21T08:46:05;8.35;;;2.97;;
52432;SDS011;38352;53.244;6.594;2022-08-21T08:48:41;10.02;;;3.33;;
52432;SDS011;38352;53.244;6.594;2022-08-21T08:51:13;10.38;;;3.03;;
52432;SDS011;38352;53.244;6.594;2022-08-21T08:53:50;8.27;;;2.50;;
52432;SDS011;38352;53.244;6.594;2022-08-21T08:56:18;10.07;;;3.50;;
52432;SDS011;38352;53.244;6.594;2022-08-21T08:58:47;7.90;;;3.67;;
52432;SDS011;38352;53.244;6.594;2022-08-21T09:01:16;9.23;;;3.22;;
52432;SDS011;38352;53.244;6.594;2022-08-21T09:03:43;10.00;;;3.30;;
52432;SDS011;38352;53.244;6.594;2022-08-21T09:06:28;10.98;;;3.20;;
52432;SDS011;38352;53.244;6.594;2022-08-21T09:09:14;9.98;;;4.03;;
52432;SDS011;38352;53.244;6.594;2022-08-21T09:14:21;10.18;;;3.67;;
52432;SDS011;38352;53.244;6.594;2022-08-21T09:19:34;17.52;;;3.95;;
52432;SDS011;38352;53.244;6.594;2022-08-21T09:22:12;7.88;;;3.30;;
52432;SDS011;38352;53.244;6.594;2022-08-21T09:24:50;9.73;;;3.58;;
52432;SDS011;38352;53.244;6.594;2022-08-21T09:27:19;8.25;;;2.92;;
52432;SDS011;38352;53.244;6.594;2022-08-21T09:29:48;11.60;;;2.95;;
52432;SDS011;38352;53.244;6.594;2022-08-21T09:34:54;9.50;;;3.50;;
52432;SDS011;38352;53.244;6.594;2022-08-21T09:37:20;14.05;;;3.17;;
52432;SDS011;38352;53.244;6.594;2022-08-21T09:39:46;11.10;;;3.08;;
52432;SDS011;38352;53.244;6.594;2022-08-21T09:42:12;10.63;;;2.90;;
52432;SDS011;38352;53.244;6.594;2022-08-21T09:44:46;9.15;;;3.38;;
52432;SDS011;38352;53.244;6.594;2022-08-21T09:47:12;10.73;;;3.45;;
52432;SDS011;38352;53.244;6.594;2022-08-21T09:49:39;10.57;;;3.20;;
52432;SDS011;38352;53.244;6.594;2022-08-21T09:52:16;12.65;;;3.50;;
52432;SDS011;38352;53.244;6.594;2022-08-21T09:54:43;10.65;;;3.55;;
52432;SDS011;38352;53.244;6.594;2022-08-21T09:59:55;12.13;;;3.67;;
52432;SDS011;38352;53.244;6.594;2022-08-21T10:02:23;7.47;;;2.80;;
52432;SDS011;38352;53.244;6.594;2022-08-21T10:04:51;13.02;;;4.07;;
52432;SDS011;38352;53.244;6.594;2022-08-21T10:07:19;11.10;;;3.70;;
52432;SDS011;38352;53.244;6.594;2022-08-21T10:09:46;6.88;;;3.00;;
52432;SDS011;38352;53.244;6.594;2022-08-21T10:14:48;9.68;;;3.40;;
52432;SDS011;38352;53.244;6.594;2022-08-21T10:32:33;8.65;;;3.00;;
52432;SDS011;38352;53.244;6.594;2022-08-21T10:40:09;8.68;;;2.80;;
52432;SDS011;38352;53.244;6.594;2022-08-21T10:45:42;6.55;;;2.63;;
52432;SDS011;38352;53.244;6.594;2022-08-21T10:48:25;8.85;;;2.72;;
52432;SDS011;38352;53.244;6.594;2022-08-21T10:50:55;8.30;;;2.78;;
52432;SDS011;38352;53.244;6.594;2022-08-21T10:58:29;8.40;;;2.78;;
52432;SDS011;38352;53.244;6.594;2022-08-21T11:01:01;8.38;;;2.90;;
52432;SDS011;38352;53.244;6.594;2022-08-21T11:03:41;7.28;;;2.88;;
52432;SDS011;38352;53.244;6.594;2022-08-21T11:08:35;9.95;;;3.20;;
52432;SDS011;38352;53.244;6.594;2022-08-21T11:11:04;7.55;;;3.20;;
52432;SDS011;38352;53.244;6.594;2022-08-21T11:13:38;7.93;;;3.15;;
52432;SDS011;38352;53.244;6.594;2022-08-21T11:16:31;8.35;;;2.92;;
52432;SDS011;38352;53.244;6.594;2022-08-21T11:18:53;9.55;;;3.15;;
52432;SDS011;38352;53.244;6.594;2022-08-21T11:21:27;12.15;;;3.55;;
52432;SDS011;38352;53.244;6.594;2022-08-21T11:26:54;6.05;;;2.63;;
52432;SDS011;38352;53.244;6.594;2022-08-21T11:29:27;11.60;;;3.28;;
52432;SDS011;38352;53.244;6.594;2022-08-21T11:39:41;9.20;;;2.90;;
52432;SDS011;38352;53.244;6.594;2022-08-21T11:47:24;9.13;;;2.85;;
52432;SDS011;38352;53.244;6.594;2022-08-21T11:52:37;7.97;;;3.10;;
52432;SDS011;38352;53.244;6.594;2022-08-21T11:55:23;7.90;;;2.83;;
52432;SDS011;38352;53.244;6.594;2022-08-21T11:57:52;5.93;;;2.78;;
52432;SDS011;38352;53.244;6.594;2022-08-21T12:00:22;6.57;;;3.15;;
52432;SDS011;38352;53.244;6.594;2022-08-21T12:02:58;7.40;;;2.90;;
52432;SDS011;38352;53.244;6.594;2022-08-21T12:05:32;8.35;;;3.15;;
52432;SDS011;38352;53.244;6.594;2022-08-21T12:08:04;10.23;;;2.90;;
52432;SDS011;38352;53.244;6.594;2022-08-21T12:10:32;9.18;;;2.65;;
52432;SDS011;38352;53.244;6.594;2022-08-21T12:13:05;9.57;;;3.30;;
52432;SDS011;38352;53.244;6.594;2022-08-21T12:15:33;10.60;;;2.90;;
52432;SDS011;38352;53.244;6.594;2022-08-21T12:18:00;8.50;;;3.05;;
52432;SDS011;38352;53.244;6.594;2022-08-21T12:20:35;7.65;;;2.72;;
52432;SDS011;38352;53.244;6.594;2022-08-21T12:23:03;4.38;;;2.17;;
52432;SDS011;38352;53.244;6.594;2022-08-21T12:25:44;7.90;;;2.70;;
52432;SDS011;38352;53.244;6.594;2022-08-21T12:28:21;8.48;;;2.53;;
52432;SDS011;38352;53.244;6.594;2022-08-21T12:30:48;6.07;;;2.45;;
52432;SDS011;38352;53.244;6.594;2022-08-21T12:35:44;6.00;;;2.08;;
52432;SDS011;38352;53.244;6.594;2022-08-21T12:38:15;7.82;;;2.50;;
52432;SDS011;38352;53.244;6.594;2022-08-21T12:43:33;7.10;;;2.15;;
52432;SDS011;38352;53.244;6.594;2022-08-21T12:46:00;6.07;;;2.35;;
52432;SDS011;38352;53.244;6.594;2022-08-21T12:48:39;4.68;;;2.42;;
52432;SDS011;38352;53.244;6.594;2022-08-21T12:51:13;7.68;;;1.95;;
52432;SDS011;38352;53.244;6.594;2022-08-21T12:53:44;5.68;;;2.38;;
52432;SDS011;38352;53.244;6.594;2022-08-21T12:56:17;7.15;;;2.58;;
52432;SDS011;38352;53.244;6.594;2022-08-21T12:58:46;5.95;;;2.35;;
52432;SDS011;38352;53.244;6.594;2022-08-21T13:03:59;5.95;;;2.17;;
52432;SDS011;38352;53.244;6.594;2022-08-21T13:06:26;5.05;;;2.50;;
52432;SDS011;38352;53.244;6.594;2022-08-21T13:08:59;5.68;;;2.30;;
52432;SDS011;38352;53.244;6.594;2022-08-21T13:11:31;5.97;;;2.05;;
52432;SDS011;38352;53.244;6.594;2022-08-21T13:13:57;6.38;;;1.95;;
52432;SDS011;38352;53.244;6.594;2022-08-21T13:16:25;5.65;;;2.22;;
52432;SDS011;38352;53.244;6.594;2022-08-21T13:19:11;10.38;;;2.13;;
52432;SDS011;38352;53.244;6.594;2022-08-21T13:21:42;5.70;;;1.83;;
52432;SDS011;38352;53.244;6.594;2022-08-21T13:24:16;4.93;;;1.60;;
52432;SDS011;38352;53.244;6.594;2022-08-21T13:29:09;8.93;;;2.20;;
52432;SDS011;38352;53.244;6.594;2022-08-21T13:31:36;6.57;;;2.05;;
52432;SDS011;38352;53.244;6.594;2022-08-21T13:34:03;5.75;;;2.22;;
52432;SDS011;38352;53.244;6.594;2022-08-21T13:36:31;5.60;;;2.08;;
52432;SDS011;38352;53.244;6.594;2022-08-21T13:38:58;7.78;;;2.40;;
52432;SDS011;38352;53.244;6.594;2022-08-21T13:41:26;8.13;;;2.42;;
52432;SDS011;38352;53.244;6.594;2022-08-21T13:44:13;6.22;;;2.30;;
52432;SDS011;38352;53.244;6.594;2022-08-21T13:46:40;9.05;;;2.03;;
52432;SDS011;38352;53.244;6.594;2022-08-21T13:49:06;5.07;;;1.73;;
52432;SDS011;38352;53.244;6.594;2022-08-21T13:51:33;7.70;;;2.20;;
52432;SDS011;38352;53.244;6.594;2022-08-21T13:53:59;6.30;;;2.00;;
52432;SDS011;38352;53.244;6.594;2022-08-21T13:56:27;5.15;;;2.20;;
52432;SDS011;38352;53.244;6.594;2022-08-21T13:58:54;8.05;;;2.17;;
52432;SDS011;38352;53.244;6.594;2022-08-21T14:01:30;9.38;;;2.40;;
52432;SDS011;38352;53.244;6.594;2022-08-21T14:04:00;8.00;;;2.00;;
52432;SDS011;38352;53.244;6.594;2022-08-21T14:06:27;7.07;;;1.88;;
52432;SDS011;38352;53.244;6.594;2022-08-21T14:09:01;9.77;;;2.50;;
52432;SDS011;38352;53.244;6.594;2022-08-21T14:11:33;6.30;;;2.30;;
52432;SDS011;38352;53.244;6.594;2022-08-21T14:14:00;5.97;;;2.13;;
52432;SDS011;38352;53.244;6.594;2022-08-21T14:16:29;10.80;;;2.67;;
52432;SDS011;38352;53.244;6.594;2022-08-21T14:19:10;3.90;;;1.98;;
52432;SDS011;38352;53.244;6.594;2022-08-21T14:21:43;12.02;;;2.67;;
52432;SDS011;38352;53.244;6.594;2022-08-21T14:29:21;4.25;;;1.70;;
52432;SDS011;38352;53.244;6.594;2022-08-21T14:31:55;8.40;;;2.72;;
52432;SDS011;38352;53.244;6.594;2022-08-21T14:34:25;10.60;;;2.40;;
52432;SDS011;38352;53.244;6.594;2022-08-21T14:36:52;13.85;;;2.50;;
52432;SDS011;38352;53.244;6.594;2022-08-21T14:39:18;6.15;;;2.08;;
52432;SDS011;38352;53.244;6.594;2022-08-21T14:41:45;10.52;;;2.20;;
52432;SDS011;38352;53.244;6.594;2022-08-21T14:44:13;8.90;;;2.20;;
52432;SDS011;38352;53.244;6.594;2022-08-21T14:46:39;7.85;;;2.10;;
52432;SDS011;38352;53.244;6.594;2022-08-21T14:49:06;7.90;;;2.28;;
52432;SDS011;38352;53.244;6.594;2022-08-21T14:51:32;5.95;;;2.10;;
52432;SDS011;38352;53.244;6.594;2022-08-21T14:53:58;6.75;;;1.80;;
52432;SDS011;38352;53.244;6.594;2022-08-21T14:56:25;7.35;;;2.25;;
52432;SDS011;38352;53.244;6.594;2022-08-21T14:58:51;6.38;;;2.20;;
52432;SDS011;38352;53.244;6.594;2022-08-21T15:01:20;7.22;;;2.78;;
52432;SDS011;38352;53.244;6.594;2022-08-21T15:03:47;8.13;;;2.10;;
52432;SDS011;38352;53.244;6.594;2022-08-21T15:06:14;5.45;;;2.13;;
52432;SDS011;38352;53.244;6.594;2022-08-21T15:08:41;8.05;;;2.83;;
52432;SDS011;38352;53.244;6.594;2022-08-21T15:11:08;6.60;;;2.33;;
52432;SDS011;38352;53.244;6.594;2022-08-21T15:13:36;9.23;;;2.47;;
52432;SDS011;38352;53.244;6.594;2022-08-21T15:16:03;6.80;;;2.20;;
52432;SDS011;38352;53.244;6.594;2022-08-21T15:18:29;7.78;;;2.30;;
52432;SDS011;38352;53.244;6.594;2022-08-21T15:20:56;8.48;;;2.47;;
52432;SDS011;38352;53.244;6.594;2022-08-21T15:23:22;7.22;;;2.97;;
52432;SDS011;38352;53.244;6.594;2022-08-21T15:25:49;8.18;;;2.80;;
52432;SDS011;38352;53.244;6.594;2022-08-21T15:28:16;6.90;;;2.28;;
52432;SDS011;38352;53.244;6.594;2022-08-21T15:30:43;9.63;;;2.55;;
52432;SDS011;38352;53.244;6.594;2022-08-21T15:33:10;7.57;;;2.53;;
52432;SDS011;38352;53.244;6.594;2022-08-21T15:35:36;7.28;;;2.20;;
52432;SDS011;38352;53.244;6.594;2022-08-21T15:38:02;7.70;;;2.63;;
52432;SDS011;38352;53.244;6.594;2022-08-21T15:40:28;7.30;;;2.38;;
52432;SDS011;38352;53.244;6.594;2022-08-21T15:42:58;7.32;;;1.90;;
52432;SDS011;38352;53.244;6.594;2022-08-21T15:45:25;7.57;;;2.38;;
52432;SDS011;38352;53.244;6.594;2022-08-21T15:47:51;9.73;;;2.40;;
52432;SDS011;38352;53.244;6.594;2022-08-21T15:50:18;5.43;;;2.45;;
52432;SDS011;38352;53.244;6.594;2022-08-21T15:52:45;7.60;;;2.25;;
52432;SDS011;38352;53.244;6.594;2022-08-21T15:55:11;6.28;;;2.58;;
52432;SDS011;38352;53.244;6.594;2022-08-21T15:57:37;4.80;;;2.15;;
52432;SDS011;38352;53.244;6.594;2022-08-21T16:00:05;6.30;;;2.22;;
52432;SDS011;38352;53.244;6.594;2022-08-21T16:02:37;8.32;;;2.88;;
52432;SDS011;38352;53.244;6.594;2022-08-21T16:05:03;8.25;;;2.20;;
52432;SDS011;38352;53.244;6.594;2022-08-21T16:07:29;5.82;;;2.80;;
52432;SDS011;38352;53.244;6.594;2022-08-21T16:09:55;8.73;;;2.70;;
52432;SDS011;38352;53.244;6.594;2022-08-21T16:12:32;8.35;;;2.50;;
52432;SDS011;38352;53.244;6.594;2022-08-21T16:14:59;8.75;;;3.25;;
52432;SDS011;38352;53.244;6.594;2022-08-21T16:17:30;10.70;;;2.90;;